sensor_id;sensor_type;location;lat;lon;timestamp;pressure;altitude;pressure_sealevel;temperature;humidity
64886;BME280;51514;52.206;5.114;2023-05-08T00:01:02;102141.47;;;14.67;93.70
64886;BME280;51514;52.206;5.114;2023-05-08T00:03:27;102140.63;;;14.66;95.60
64886;BME280;51514;52.206;5.114;2023-05-08T00:05:53;102138.63;;;14.68;95.43
64886;BME280;51514;52.206;5.114;2023-05-08T00:08:19;102141.31;;;14.68;95.85
64886;BME280;51514;52.206;5.114;2023-05-08T00:10:45;102137.84;;;14.76;96.53
64886;BME280;51514;52.206;5.114;2023-05-08T00:13:10;102132.09;;;14.79;96.85
64886;BME280;51514;52.206;5.114;2023-05-08T00:15:36;102125.88;;;14.86;96.39
64886;BME280;51514;52.206;5.114;2023-05-08T00:18:01;102128.31;;;14.89;96.33
64886;BME280;51514;52.206;5.114;2023-05-08T00:20:26;102128.00;;;14.92;95.77
64886;BME280;51514;52.206;5.114;2023-05-08T00:22:52;102128.50;;;14.96;96.34
64886;BME280;51514;52.206;5.114;2023-05-08T00:25:17;102123.16;;;15.04;95.98
64886;BME280;51514;52.206;5.114;2023-05-08T00:27:42;102119.44;;;15.05;95.22
64886;BME280;51514;52.206;5.114;2023-05-08T00:30:08;102123.00;;;15.06;95.13
64886;BME280;51514;52.206;5.114;2023-05-08T00:32:33;102127.13;;;15.10;94.84
64886;BME280;51514;52.206;5.114;2023-05-08T00:34:59;102126.81;;;15.13;94.73
64886;BME280;51514;52.206;5.114;2023-05-08T00:37:24;102132.75;;;15.16;94.37
64886;BME280;51514;52.206;5.114;2023-05-08T00:39:49;102130.19;;;15.15;93.77
64886;BME280;51514;52.206;5.114;2023-05-08T00:42:15;102126.47;;;15.16;93.51
64886;BME280;51514;52.206;5.114;2023-05-08T00:44:40;102124.75;;;15.15;93.20
64886;BME280;51514;52.206;5.114;2023-05-08T00:47:07;102126.81;;;15.13;93.26
64886;BME280;51514;52.206;5.114;2023-05-08T00:49:33;102135.97;;;15.12;92.96
64886;BME280;51514;52.206;5.114;2023-05-08T00:52:01;102129.84;;;15.10;93.03
64886;BME280;51514;52.206;5.114;2023-05-08T00:54:27;102134.56;;;15.08;93.30
64886;BME280;51514;52.206;5.114;2023-05-08T00:56:54;102147.44;;;15.06;93.02
64886;BME280;51514;52.206;5.114;2023-05-08T00:59:20;102142.00;;;15.06;93.22
64886;BME280;51514;52.206;5.114;2023-05-08T01:01:47;102133.88;;;15.06;93.29
64886;BME280;51514;52.206;5.114;2023-05-08T01:04:14;102141.84;;;15.07;92.92
64886;BME280;51514;52.206;5.114;2023-05-08T01:06:39;102141.00;;;15.07;92.87
64886;BME280;51514;52.206;5.114;2023-05-08T01:09:05;102137.78;;;15.03;92.78
64886;BME280;51514;52.206;5.114;2023-05-08T01:11:55;102133.50;;;15.01;92.88
64886;BME280;51514;52.206;5.114;2023-05-08T01:28:15;102143.59;;;14.90;92.13
64886;BME280;51514;52.206;5.114;2023-05-08T01:30:57;102149.53;;;14.76;91.83
64886;BME280;51514;52.206;5.114;2023-05-08T01:33:29;102147.69;;;14.59;92.02
64886;BME280;51514;52.206;5.114;2023-05-08T01:39:04;102140.84;;;14.55;91.43
64886;BME280;51514;52.206;5.114;2023-05-08T01:41:35;102137.63;;;14.42;91.13
64886;BME280;51514;52.206;5.114;2023-05-08T01:44:18;102141.09;;;14.34;91.57
64886;BME280;51514;52.206;5.114;2023-05-08T01:46:48;102140.84;;;14.28;91.98
64886;BME280;51514;52.206;5.114;2023-05-08T01:49:22;102141.38;;;14.31;92.18
64886;BME280;51514;52.206;5.114;2023-05-08T01:51:55;102148.50;;;14.32;91.83
64886;BME280;51514;52.206;5.114;2023-05-08T01:54:25;102133.78;;;14.35;91.85
64886;BME280;51514;52.206;5.114;2023-05-08T01:56:54;102134.81;;;14.34;91.59
64886;BME280;51514;52.206;5.114;2023-05-08T01:59:21;102140.94;;;14.36;91.66
64886;BME280;51514;52.206;5.114;2023-05-08T02:01:51;102155.34;;;14.36;92.11
64886;BME280;51514;52.206;5.114;2023-05-08T02:04:18;102153.34;;;14.38;92.26
64886;BME280;51514;52.206;5.114;2023-05-08T02:06:44;102150.38;;;14.32;91.91
64886;BME280;51514;52.206;5.114;2023-05-08T02:09:10;102145.44;;;14.17;92.46
64886;BME280;51514;52.206;5.114;2023-05-08T02:11:38;102144.63;;;14.07;92.98
64886;BME280;51514;52.206;5.114;2023-05-08T02:14:04;102146.50;;;14.07;92.99
64886;BME280;51514;52.206;5.114;2023-05-08T02:16:32;102147.34;;;14.07;92.58
64886;BME280;51514;52.206;5.114;2023-05-08T02:18:59;102148.34;;;14.06;92.13
64886;BME280;51514;52.206;5.114;2023-05-08T02:21:26;102155.81;;;14.04;92.07
64886;BME280;51514;52.206;5.114;2023-05-08T02:23:53;102161.81;;;13.98;92.13
64886;BME280;51514;52.206;5.114;2023-05-08T02:26:21;102159.13;;;13.88;92.04
64886;BME280;51514;52.206;5.114;2023-05-08T02:28:48;102149.59;;;13.75;92.84
64886;BME280;51514;52.206;5.114;2023-05-08T02:31:15;102157.34;;;13.70;93.18
64886;BME280;51514;52.206;5.114;2023-05-08T02:33:42;102160.63;;;13.73;92.87
64886;BME280;51514;52.206;5.114;2023-05-08T02:36:14;102154.75;;;13.78;92.84
64886;BME280;51514;52.206;5.114;2023-05-08T02:38:43;102155.59;;;13.78;92.45
64886;BME280;51514;52.206;5.114;2023-05-08T02:41:09;102154.59;;;13.79;92.26
64886;BME280;51514;52.206;5.114;2023-05-08T02:43:36;102154.47;;;13.81;92.15
64886;BME280;51514;52.206;5.114;2023-05-08T02:46:23;102157.03;;;13.82;92.04
64886;BME280;51514;52.206;5.114;2023-05-08T02:51:42;102151.13;;;13.87;91.74
64886;BME280;51514;52.206;5.114;2023-05-08T02:54:20;102153.84;;;13.87;91.73
64886;BME280;51514;52.206;5.114;2023-05-08T02:57:02;102157.56;;;13.86;91.47
64886;BME280;51514;52.206;5.114;2023-05-08T02:59:36;102157.72;;;13.84;91.31
64886;BME280;51514;52.206;5.114;2023-05-08T03:02:12;102155.00;;;13.84;91.14
64886;BME280;51514;52.206;5.114;2023-05-08T03:04:46;102150.75;;;13.82;91.00
64886;BME280;51514;52.206;5.114;2023-05-08T03:07:14;102145.31;;;13.82;90.81
64886;BME280;51514;52.206;5.114;2023-05-08T03:09:46;102142.63;;;13.82;91.11
64886;BME280;51514;52.206;5.114;2023-05-08T03:12:21;102138.19;;;13.81;91.45
64886;BME280;51514;52.206;5.114;2023-05-08T03:15:05;102137.34;;;13.80;91.56
64886;BME280;51514;52.206;5.114;2023-05-08T03:17:32;102137.06;;;13.74;91.02
64886;BME280;51514;52.206;5.114;2023-05-08T03:20:03;102141.22;;;13.68;91.44
64886;BME280;51514;52.206;5.114;2023-05-08T03:22:31;102151.06;;;13.69;92.12
64886;BME280;51514;52.206;5.114;2023-05-08T03:25:00;102140.38;;;13.68;91.57
64886;BME280;51514;52.206;5.114;2023-05-08T03:27:28;102139.50;;;13.67;91.34
64886;BME280;51514;52.206;5.114;2023-05-08T03:29:55;102137.66;;;13.68;90.93
64886;BME280;51514;52.206;5.114;2023-05-08T03:32:24;102136.94;;;13.66;90.62
64886;BME280;51514;52.206;5.114;2023-05-08T03:34:50;102138.94;;;13.64;91.03
64886;BME280;51514;52.206;5.114;2023-05-08T03:37:17;102131.66;;;13.64;91.02
64886;BME280;51514;52.206;5.114;2023-05-08T03:39:42;102125.38;;;13.64;90.93
64886;BME280;51514;52.206;5.114;2023-05-08T03:42:08;102126.56;;;13.61;90.96
64886;BME280;51514;52.206;5.114;2023-05-08T03:44:33;102129.41;;;13.60;90.86
64886;BME280;51514;52.206;5.114;2023-05-08T03:47:00;102122.44;;;13.57;90.33
64886;BME280;51514;52.206;5.114;2023-05-08T03:49:28;102120.72;;;13.56;90.20
64886;BME280;51514;52.206;5.114;2023-05-08T03:51:55;102121.56;;;13.57;89.98
64886;BME280;51514;52.206;5.114;2023-05-08T03:54:20;102126.28;;;13.55;89.85
64886;BME280;51514;52.206;5.114;2023-05-08T03:56:52;102127.28;;;13.53;89.84
64886;BME280;51514;52.206;5.114;2023-05-08T03:59:29;102122.84;;;13.52;90.04
64886;BME280;51514;52.206;5.114;2023-05-08T04:04:52;102132.44;;;13.47;89.46
64886;BME280;51514;52.206;5.114;2023-05-08T04:07:37;102137.16;;;13.45;89.67
64886;BME280;51514;52.206;5.114;2023-05-08T04:10:15;102135.75;;;13.41;89.96
64886;BME280;51514;52.206;5.114;2023-05-08T04:15:28;102142.00;;;13.41;90.17
64886;BME280;51514;52.206;5.114;2023-05-08T04:17:55;102138.72;;;13.47;91.15
64886;BME280;51514;52.206;5.114;2023-05-08T04:20:23;102144.84;;;13.49;90.72
64886;BME280;51514;52.206;5.114;2023-05-08T04:22:52;102146.38;;;13.52;91.53
64886;BME280;51514;52.206;5.114;2023-05-08T04:25:18;102142.41;;;13.56;91.29
64886;BME280;51514;52.206;5.114;2023-05-08T04:27:44;102146.22;;;13.63;91.33
64886;BME280;51514;52.206;5.114;2023-05-08T04:30:10;102153.91;;;13.68;91.60
64886;BME280;51514;52.206;5.114;2023-05-08T04:32:36;102153.63;;;13.71;92.09
64886;BME280;51514;52.206;5.114;2023-05-08T04:35:03;102156.59;;;13.77;92.67
64886;BME280;51514;52.206;5.114;2023-05-08T04:37:29;102153.13;;;13.85;92.76
64886;BME280;51514;52.206;5.114;2023-05-08T04:39:57;102163.41;;;13.91;93.21
64886;BME280;51514;52.206;5.114;2023-05-08T04:42:23;102159.09;;;13.98;93.57
64886;BME280;51514;52.206;5.114;2023-05-08T04:44:51;102166.66;;;14.04;94.11
64886;BME280;51514;52.206;5.114;2023-05-08T04:47:16;102166.91;;;14.11;94.22
64886;BME280;51514;52.206;5.114;2023-05-08T04:49:41;102168.00;;;14.18;94.25
64886;BME280;51514;52.206;5.114;2023-05-08T04:52:07;102165.69;;;14.23;94.54
64886;BME280;51514;52.206;5.114;2023-05-08T04:54:33;102172.38;;;14.29;94.89
64886;BME280;51514;52.206;5.114;2023-05-08T04:56:58;102174.50;;;14.35;94.93
64886;BME280;51514;52.206;5.114;2023-05-08T04:59:23;102166.06;;;14.38;95.45
64886;BME280;51514;52.206;5.114;2023-05-08T05:01:52;102173.63;;;14.44;95.30
64886;BME280;51514;52.206;5.114;2023-05-08T05:04:17;102177.41;;;14.51;95.09
64886;BME280;51514;52.206;5.114;2023-05-08T05:06:43;102182.41;;;14.55;95.51
64886;BME280;51514;52.206;5.114;2023-05-08T05:09:08;102177.22;;;14.62;95.31
64886;BME280;51514;52.206;5.114;2023-05-08T05:11:34;102187.47;;;14.68;95.55
64886;BME280;51514;52.206;5.114;2023-05-08T05:14:00;102179.00;;;14.71;95.59
64886;BME280;51514;52.206;5.114;2023-05-08T05:16:25;102193.00;;;14.76;95.36
64886;BME280;51514;52.206;5.114;2023-05-08T05:18:51;102198.84;;;14.81;95.51
64886;BME280;51514;52.206;5.114;2023-05-08T05:21:17;102200.50;;;14.82;95.45
64886;BME280;51514;52.206;5.114;2023-05-08T05:23:42;102198.84;;;14.81;96.26
64886;BME280;51514;52.206;5.114;2023-05-08T05:26:08;102204.25;;;14.81;96.49
64886;BME280;51514;52.206;5.114;2023-05-08T05:28:33;102200.22;;;14.85;96.60
64886;BME280;51514;52.206;5.114;2023-05-08T05:30:59;102200.47;;;14.92;96.68
64886;BME280;51514;52.206;5.114;2023-05-08T05:33:24;102193.56;;;14.97;96.88
64886;BME280;51514;52.206;5.114;2023-05-08T05:35:49;102192.84;;;14.95;97.16
64886;BME280;51514;52.206;5.114;2023-05-08T05:38:16;102203.63;;;14.87;96.61
64886;BME280;51514;52.206;5.114;2023-05-08T05:40:41;102201.38;;;14.83;97.30
64886;BME280;51514;52.206;5.114;2023-05-08T05:43:06;102199.13;;;14.78;97.34
64886;BME280;51514;52.206;5.114;2023-05-08T05:45:32;102201.13;;;14.76;98.76
64886;BME280;51514;52.206;5.114;2023-05-08T05:47:57;102204.25;;;14.81;98.34
64886;BME280;51514;52.206;5.114;2023-05-08T05:50:22;102210.06;;;14.86;98.23
64886;BME280;51514;52.206;5.114;2023-05-08T05:52:48;102205.91;;;14.92;98.37
64886;BME280;51514;52.206;5.114;2023-05-08T05:55:13;102207.28;;;14.96;98.69
64886;BME280;51514;52.206;5.114;2023-05-08T05:57:38;102216.28;;;14.96;98.66
64886;BME280;51514;52.206;5.114;2023-05-08T06:00:04;102203.09;;;15.02;99.10
64886;BME280;51514;52.206;5.114;2023-05-08T06:02:30;102212.34;;;15.09;98.74
64886;BME280;51514;52.206;5.114;2023-05-08T06:04:58;102222.06;;;15.11;98.96
64886;BME280;51514;52.206;5.114;2023-05-08T06:07:23;102223.75;;;15.12;99.05
64886;BME280;51514;52.206;5.114;2023-05-08T06:09:48;102220.56;;;15.17;99.82
64886;BME280;51514;52.206;5.114;2023-05-08T06:12:15;102215.53;;;15.22;98.99
64886;BME280;51514;52.206;5.114;2023-05-08T06:14:42;102221.34;;;15.27;99.37
64886;BME280;51514;52.206;5.114;2023-05-08T06:17:07;102216.00;;;15.35;99.04
64886;BME280;51514;52.206;5.114;2023-05-08T06:19:32;102223.22;;;15.44;98.98
64886;BME280;51514;52.206;5.114;2023-05-08T06:21:58;102220.53;;;15.52;99.28
64886;BME280;51514;52.206;5.114;2023-05-08T06:24:23;102222.03;;;15.64;99.66
64886;BME280;51514;52.206;5.114;2023-05-08T06:26:48;102223.81;;;15.74;99.53
64886;BME280;51514;52.206;5.114;2023-05-08T06:29:14;102222.38;;;15.87;99.09
64886;BME280;51514;52.206;5.114;2023-05-08T06:31:39;102225.31;;;15.94;98.21
64886;BME280;51514;52.206;5.114;2023-05-08T06:34:04;102229.06;;;16.01;97.85
64886;BME280;51514;52.206;5.114;2023-05-08T06:36:30;102220.28;;;16.07;97.72
64886;BME280;51514;52.206;5.114;2023-05-08T06:38:56;102227.47;;;16.16;97.65
64886;BME280;51514;52.206;5.114;2023-05-08T06:41:21;102230.63;;;16.29;97.33
64886;BME280;51514;52.206;5.114;2023-05-08T06:43:47;102241.06;;;16.42;97.51
64886;BME280;51514;52.206;5.114;2023-05-08T06:46:12;102230.56;;;16.55;97.73
64886;BME280;51514;52.206;5.114;2023-05-08T06:48:37;102220.44;;;16.65;97.40
64886;BME280;51514;52.206;5.114;2023-05-08T06:51:03;102217.72;;;16.73;97.76
64886;BME280;51514;52.206;5.114;2023-05-08T06:53:28;102213.00;;;16.84;97.13
64886;BME280;51514;52.206;5.114;2023-05-08T06:55:54;102221.19;;;16.92;96.81
64886;BME280;51514;52.206;5.114;2023-05-08T06:58:21;102219.84;;;16.96;96.99
64886;BME280;51514;52.206;5.114;2023-05-08T07:00:47;102217.97;;;16.96;96.53
64886;BME280;51514;52.206;5.114;2023-05-08T07:03:12;102215.75;;;17.00;96.29
64886;BME280;51514;52.206;5.114;2023-05-08T07:05:37;102220.34;;;16.99;96.44
64886;BME280;51514;52.206;5.114;2023-05-08T07:08:03;102219.84;;;17.04;96.84
64886;BME280;51514;52.206;5.114;2023-05-08T07:10:28;102221.72;;;17.11;96.99
64886;BME280;51514;52.206;5.114;2023-05-08T07:12:54;102228.88;;;17.12;96.70
64886;BME280;51514;52.206;5.114;2023-05-08T07:15:19;102213.06;;;17.16;96.17
64886;BME280;51514;52.206;5.114;2023-05-08T07:17:46;102220.72;;;17.21;96.15
64886;BME280;51514;52.206;5.114;2023-05-08T07:20:11;102222.56;;;17.20;96.16
64886;BME280;51514;52.206;5.114;2023-05-08T07:22:36;102220.38;;;17.24;95.99
64886;BME280;51514;52.206;5.114;2023-05-08T07:25:02;102221.06;;;17.26;95.69
64886;BME280;51514;52.206;5.114;2023-05-08T07:27:27;102226.03;;;17.30;95.66
64886;BME280;51514;52.206;5.114;2023-05-08T07:29:53;102222.78;;;17.35;95.85
64886;BME280;51514;52.206;5.114;2023-05-08T07:32:18;102213.41;;;17.37;95.27
64886;BME280;51514;52.206;5.114;2023-05-08T07:34:43;102219.03;;;17.36;94.77
64886;BME280;51514;52.206;5.114;2023-05-08T07:37:09;102214.59;;;17.35;94.69
64886;BME280;51514;52.206;5.114;2023-05-08T07:39:34;102216.31;;;17.36;94.96
64886;BME280;51514;52.206;5.114;2023-05-08T07:42:00;102225.34;;;17.36;94.92
64886;BME280;51514;52.206;5.114;2023-05-08T07:44:25;102223.63;;;17.35;94.76
64886;BME280;51514;52.206;5.114;2023-05-08T07:46:50;102214.09;;;17.39;95.28
64886;BME280;51514;52.206;5.114;2023-05-08T07:49:16;102220.41;;;17.40;95.28
64886;BME280;51514;52.206;5.114;2023-05-08T07:51:42;102226.88;;;17.47;95.23
64886;BME280;51514;52.206;5.114;2023-05-08T07:54:07;102222.78;;;17.51;94.84
64886;BME280;51514;52.206;5.114;2023-05-08T07:56:32;102215.97;;;17.55;95.27
64886;BME280;51514;52.206;5.114;2023-05-08T07:58:57;102217.34;;;17.59;94.74
64886;BME280;51514;52.206;5.114;2023-05-08T08:01:23;102211.53;;;17.62;94.54
64886;BME280;51514;52.206;5.114;2023-05-08T08:03:48;102210.84;;;17.60;94.43
64886;BME280;51514;52.206;5.114;2023-05-08T08:06:14;102204.72;;;17.50;94.36
64886;BME280;51514;52.206;5.114;2023-05-08T08:08:45;102212.22;;;17.48;94.77
64886;BME280;51514;52.206;5.114;2023-05-08T08:11:16;102218.53;;;17.48;95.07
64886;BME280;51514;52.206;5.114;2023-05-08T08:13:42;102207.09;;;17.53;95.10
64886;BME280;51514;52.206;5.114;2023-05-08T08:16:07;102204.34;;;17.53;94.67
64886;BME280;51514;52.206;5.114;2023-05-08T08:18:33;102212.56;;;17.61;95.08
64886;BME280;51514;52.206;5.114;2023-05-08T08:21:00;102204.03;;;17.64;95.07
64886;BME280;51514;52.206;5.114;2023-05-08T08:23:25;102206.09;;;17.62;94.58
64886;BME280;51514;52.206;5.114;2023-05-08T08:25:51;102214.94;;;17.56;94.70
64886;BME280;51514;52.206;5.114;2023-05-08T08:28:18;102197.75;;;17.64;94.89
64886;BME280;51514;52.206;5.114;2023-05-08T08:30:43;102203.84;;;17.74;95.09
64886;BME280;51514;52.206;5.114;2023-05-08T08:33:08;102208.97;;;17.85;94.00
64886;BME280;51514;52.206;5.114;2023-05-08T08:35:33;102204.38;;;17.94;94.30
64886;BME280;51514;52.206;5.114;2023-05-08T08:37:59;102212.69;;;18.00;93.44
64886;BME280;51514;52.206;5.114;2023-05-08T08:40:24;102206.72;;;17.97;93.25
64886;BME280;51514;52.206;5.114;2023-05-08T08:42:50;102218.66;;;17.96;93.79
64886;BME280;51514;52.206;5.114;2023-05-08T08:45:15;102219.72;;;17.95;93.88
64886;BME280;51514;52.206;5.114;2023-05-08T08:47:43;102205.53;;;17.99;94.53
64886;BME280;51514;52.206;5.114;2023-05-08T08:50:09;102207.38;;;18.07;93.68
64886;BME280;51514;52.206;5.114;2023-05-08T08:52:50;102215.56;;;18.15;93.69
64886;BME280;51514;52.206;5.114;2023-05-08T08:55:21;102215.56;;;18.15;93.24
64886;BME280;51514;52.206;5.114;2023-05-08T08:58:10;102221.34;;;18.20;92.91
64886;BME280;51514;52.206;5.114;2023-05-08T09:00:38;102224.41;;;18.25;92.84
64886;BME280;51514;52.206;5.114;2023-05-08T09:03:06;102226.78;;;18.28;93.01
64886;BME280;51514;52.206;5.114;2023-05-08T09:05:32;102222.00;;;18.30;92.25
64886;BME280;51514;52.206;5.114;2023-05-08T09:07:58;102215.84;;;18.28;92.41
64886;BME280;51514;52.206;5.114;2023-05-08T09:10:25;102219.47;;;18.20;92.33
64886;BME280;51514;52.206;5.114;2023-05-08T09:12:50;102214.53;;;18.16;92.25
64886;BME280;51514;52.206;5.114;2023-05-08T09:15:16;102224.06;;;18.20;92.04
64886;BME280;51514;52.206;5.114;2023-05-08T09:17:41;102223.91;;;18.21;92.36
64886;BME280;51514;52.206;5.114;2023-05-08T09:20:07;102212.28;;;18.19;91.72
64886;BME280;51514;52.206;5.114;2023-05-08T09:22:35;102215.06;;;18.11;92.04
64886;BME280;51514;52.206;5.114;2023-05-08T09:25:01;102221.38;;;18.12;91.63
64886;BME280;51514;52.206;5.114;2023-05-08T09:27:28;102214.16;;;18.19;92.00
64886;BME280;51514;52.206;5.114;2023-05-08T09:32:24;102223.06;;;18.13;92.09
64886;BME280;51514;52.206;5.114;2023-05-08T09:34:52;102217.28;;;18.16;92.20
64886;BME280;51514;52.206;5.114;2023-05-08T09:37:18;102226.28;;;18.24;92.38
64886;BME280;51514;52.206;5.114;2023-05-08T09:39:43;102225.22;;;18.34;92.20
64886;BME280;51514;52.206;5.114;2023-05-08T09:42:11;102226.56;;;18.46;92.31
64886;BME280;51514;52.206;5.114;2023-05-08T09:44:54;102220.38;;;18.60;92.12
64886;BME280;51514;52.206;5.114;2023-05-08T09:47:23;102224.28;;;18.66;91.55
64886;BME280;51514;52.206;5.114;2023-05-08T09:49:55;102215.72;;;18.69;91.74
64886;BME280;51514;52.206;5.114;2023-05-08T09:52:21;102218.25;;;18.78;92.06
64886;BME280;51514;52.206;5.114;2023-05-08T09:54:55;102214.31;;;18.81;90.69
64886;BME280;51514;52.206;5.114;2023-05-08T09:57:57;102210.94;;;18.93;90.26
64886;BME280;51514;52.206;5.114;2023-05-08T10:04:04;102218.03;;;19.33;88.21
64886;BME280;51514;52.206;5.114;2023-05-08T10:06:32;102215.66;;;19.30;88.74
64886;BME280;51514;52.206;5.114;2023-05-08T10:09:14;102217.88;;;19.35;87.14
64886;BME280;51514;52.206;5.114;2023-05-08T10:11:41;102212.69;;;19.40;87.95
64886;BME280;51514;52.206;5.114;2023-05-08T10:14:07;102213.34;;;19.42;88.24
64886;BME280;51514;52.206;5.114;2023-05-08T10:16:41;102212.13;;;19.45;88.16
64886;BME280;51514;52.206;5.114;2023-05-08T10:19:12;102218.78;;;19.50;87.91
64886;BME280;51514;52.206;5.114;2023-05-08T10:21:41;102215.88;;;19.52;87.23
64886;BME280;51514;52.206;5.114;2023-05-08T10:24:45;102215.59;;;19.61;87.33
64886;BME280;51514;52.206;5.114;2023-05-08T10:27:23;102218.66;;;19.66;85.91
64886;BME280;51514;52.206;5.114;2023-05-08T10:29:55;102214.28;;;19.57;85.43
64886;BME280;51514;52.206;5.114;2023-05-08T10:32:24;102211.91;;;19.54;86.81
64886;BME280;51514;52.206;5.114;2023-05-08T10:34:58;102211.75;;;19.56;85.81
64886;BME280;51514;52.206;5.114;2023-05-08T10:37:24;102216.19;;;19.57;86.09
64886;BME280;51514;52.206;5.114;2023-05-08T10:39:51;102222.59;;;19.64;86.84
64886;BME280;51514;52.206;5.114;2023-05-08T10:42:18;102220.75;;;19.79;86.18
64886;BME280;51514;52.206;5.114;2023-05-08T10:44:43;102216.41;;;19.85;85.54
64886;BME280;51514;52.206;5.114;2023-05-08T10:50:20;102214.22;;;19.65;82.93
64886;BME280;51514;52.206;5.114;2023-05-08T10:53:07;102220.72;;;19.64;84.51
64886;BME280;51514;52.206;5.114;2023-05-08T10:55:36;102216.47;;;19.62;84.27
64886;BME280;51514;52.206;5.114;2023-05-08T10:58:10;102221.44;;;19.58;83.68
64886;BME280;51514;52.206;5.114;2023-05-08T11:03:16;102215.78;;;19.60;84.33
64886;BME280;51514;52.206;5.114;2023-05-08T11:05:45;102218.25;;;19.55;83.43
64886;BME280;51514;52.206;5.114;2023-05-08T11:08:16;102215.56;;;19.47;83.38
64886;BME280;51514;52.206;5.114;2023-05-08T11:10:43;102212.94;;;19.53;82.86
64886;BME280;51514;52.206;5.114;2023-05-08T11:13:12;102211.84;;;19.62;83.00
64886;BME280;51514;52.206;5.114;2023-05-08T11:15:40;102211.75;;;19.71;83.97
64886;BME280;51514;52.206;5.114;2023-05-08T11:18:09;102207.31;;;19.69;83.12
64886;BME280;51514;52.206;5.114;2023-05-08T11:20:40;102208.84;;;19.72;82.32
64886;BME280;51514;52.206;5.114;2023-05-08T11:23:26;102194.88;;;19.67;81.84
64886;BME280;51514;52.206;5.114;2023-05-08T11:25:59;102203.94;;;19.67;82.20
64886;BME280;51514;52.206;5.114;2023-05-08T11:28:31;102193.84;;;19.68;81.97
64886;BME280;51514;52.206;5.114;2023-05-08T11:31:04;102190.34;;;19.74;81.66
64886;BME280;51514;52.206;5.114;2023-05-08T11:33:32;102195.06;;;19.80;81.81
64886;BME280;51514;52.206;5.114;2023-05-08T11:35:59;102186.41;;;19.91;80.88
64886;BME280;51514;52.206;5.114;2023-05-08T11:38:32;102186.03;;;20.24;80.67
64886;BME280;51514;52.206;5.114;2023-05-08T11:41:00;102170.53;;;20.46;78.14
64886;BME280;51514;52.206;5.114;2023-05-08T11:45:59;102179.28;;;20.70;77.52
64886;BME280;51514;52.206;5.114;2023-05-08T11:48:25;102167.47;;;20.70;76.07
64886;BME280;51514;52.206;5.114;2023-05-08T11:50:51;102173.44;;;20.73;75.03
64886;BME280;51514;52.206;5.114;2023-05-08T11:53:17;102171.88;;;20.86;76.20
64886;BME280;51514;52.206;5.114;2023-05-08T11:55:46;102169.69;;;21.17;76.60
64886;BME280;51514;52.206;5.114;2023-05-08T11:58:12;102161.91;;;21.42;74.62
64886;BME280;51514;52.206;5.114;2023-05-08T12:00:44;102153.47;;;21.43;73.33
64886;BME280;51514;52.206;5.114;2023-05-08T12:03:23;102150.47;;;21.66;74.21
64886;BME280;51514;52.206;5.114;2023-05-08T12:05:55;102149.44;;;21.95;73.91
64886;BME280;51514;52.206;5.114;2023-05-08T12:08:21;102158.78;;;22.01;71.20
64886;BME280;51514;52.206;5.114;2023-05-08T12:10:51;102158.06;;;21.92;71.11
64886;BME280;51514;52.206;5.114;2023-05-08T12:13:27;102160.56;;;21.87;72.47
64886;BME280;51514;52.206;5.114;2023-05-08T12:15:54;102160.72;;;21.79;74.15
64886;BME280;51514;52.206;5.114;2023-05-08T12:18:21;102157.50;;;21.75;74.63
64886;BME280;51514;52.206;5.114;2023-05-08T12:20:56;102150.59;;;21.79;76.06
64886;BME280;51514;52.206;5.114;2023-05-08T12:23:23;102155.88;;;21.81;75.80
64886;BME280;51514;52.206;5.114;2023-05-08T12:25:52;102152.09;;;21.82;73.87
64886;BME280;51514;52.206;5.114;2023-05-08T12:28:18;102154.00;;;21.88;74.53
64886;BME280;51514;52.206;5.114;2023-05-08T12:30:44;102150.56;;;22.07;73.71
64886;BME280;51514;52.206;5.114;2023-05-08T12:33:10;102152.75;;;22.18;73.53
64886;BME280;51514;52.206;5.114;2023-05-08T12:35:36;102145.31;;;22.12;70.44
64886;BME280;51514;52.206;5.114;2023-05-08T12:38:02;102138.94;;;22.05;71.49
64886;BME280;51514;52.206;5.114;2023-05-08T12:40:31;102141.69;;;22.05;72.07
64886;BME280;51514;52.206;5.114;2023-05-08T12:43:00;102129.97;;;22.25;73.31
64886;BME280;51514;52.206;5.114;2023-05-08T12:45:28;102129.44;;;22.49;73.11
64886;BME280;51514;52.206;5.114;2023-05-08T12:48:00;102129.00;;;22.52;69.36
64886;BME280;51514;52.206;5.114;2023-05-08T12:50:26;102129.63;;;22.47;70.54
64886;BME280;51514;52.206;5.114;2023-05-08T12:53:00;102128.38;;;22.56;69.45
64886;BME280;51514;52.206;5.114;2023-05-08T12:55:28;102127.34;;;22.64;71.01
64886;BME280;51514;52.206;5.114;2023-05-08T12:58:10;102126.28;;;22.65;69.84
64886;BME280;51514;52.206;5.114;2023-05-08T13:00:37;102127.13;;;22.66;70.81
64886;BME280;51514;52.206;5.114;2023-05-08T13:03:04;102121.72;;;22.79;71.18
64886;BME280;51514;52.206;5.114;2023-05-08T13:05:30;102120.44;;;22.94;69.54
64886;BME280;51514;52.206;5.114;2023-05-08T13:08:09;102110.75;;;23.12;68.44
64886;BME280;51514;52.206;5.114;2023-05-08T13:10:54;102108.63;;;23.27;67.92
64886;BME280;51514;52.206;5.114;2023-05-08T13:13:21;102099.75;;;23.32;67.77
64886;BME280;51514;52.206;5.114;2023-05-08T13:15:47;102103.75;;;23.29;65.49
64886;BME280;51514;52.206;5.114;2023-05-08T13:18:14;102100.19;;;23.35;66.78
64886;BME280;51514;52.206;5.114;2023-05-08T13:20:39;102104.81;;;23.41;67.21
64886;BME280;51514;52.206;5.114;2023-05-08T13:23:06;102111.38;;;23.40;65.73
64886;BME280;51514;52.206;5.114;2023-05-08T13:25:32;102115.84;;;23.35;65.32
64886;BME280;51514;52.206;5.114;2023-05-08T13:27:59;102109.47;;;23.21;64.28
64886;BME280;51514;52.206;5.114;2023-05-08T13:30:24;102104.41;;;23.18;64.56
64886;BME280;51514;52.206;5.114;2023-05-08T13:32:51;102101.63;;;23.05;64.41
64886;BME280;51514;52.206;5.114;2023-05-08T13:35:17;102098.69;;;23.00;66.49